Time;durP1;ratioP1;P1;durP2;ratioP2;P2;SDS_P1;SDS_P2;PMS_P1;PMS_P2;Temp;Humidity;BMP_temperature;BMP_pressure;BME280_temperature;BME280_humidity;BME280_pressure;Samples;Min_cycle;Max_cycle;Signal;HPM_P1;HPM_P2
2023/02/21 02:15:24;;;;;;;4.13;3.70;;;18.00;55.30;;;;;;5113295;28;20173;-56
2023/02/21 02:18:02;;;;;;;4.13;3.72;;;17.90;55.30;;;;;;5111653;28;20220;-57
2023/02/21 02:21:04;;;;;;;4.13;3.72;;;17.90;55.30;;;;;;5111718;28;20177;-55
2023/02/21 02:23:48;;;;;;;4.97;4.10;;;17.90;55.30;;;;;;5112630;28;20678;-55
2023/02/21 02:26:39;;;;;;;4.25;3.85;;;17.90;55.30;;;;;;5116557;28;20618;-55
2023/02/21 02:29:10;;;;;;;4.13;3.47;;;17.90;55.30;;;;;;5116370;28;20233;-56
2023/02/21 02:32:08;;;;;;;4.88;4.47;;;17.90;55.30;;;;;;5117087;28;20171;-57
2023/02/21 02:34:52;;;;;;;5.07;4.57;;;17.90;55.30;;;;;;5115047;28;20634;-57
2023/02/21 02:37:29;;;;;;;4.85;4.45;;;17.80;55.30;;;;;;5116084;28;20176;-57
2023/02/21 02:39:59;;;;;;;5.07;4.68;;;17.80;55.30;;;;;;5115316;28;20509;-56
2023/02/21 02:42:36;;;;;;;4.70;4.15;;;17.80;55.30;;;;;;5116437;28;20556;-57
2023/02/21 02:45:13;;;;;;;4.47;4.07;;;17.80;55.30;;;;;;5117295;28;20196;-56
2023/02/21 02:47:38;;;;;;;4.60;4.20;;;17.80;55.30;;;;;;5114630;28;20574;-56
2023/02/21 02:50:05;;;;;;;4.85;4.35;;;17.80;55.30;;;;;;5115827;28;20165;-56
2023/02/21 02:52:31;;;;;;;5.03;4.53;;;17.80;55.30;;;;;;5115791;28;20241;-56
2023/02/21 02:55:19;;;;;;;5.05;4.55;;;17.80;55.30;;;;;;5115965;28;20165;-55
2023/02/21 02:57:47;;;;;;;4.63;4.22;;;17.80;55.30;;;;;;5117002;28;20165;-55
2023/02/21 03:00:13;;;;;;;4.70;4.30;;;17.80;55.30;;;;;;5116749;28;20185;-57
2023/02/21 03:02:54;;;;;;;6.05;5.28;;;17.80;55.30;;;;;;5114529;28;20322;-57
2023/02/21 03:05:49;;;;;;;5.63;5.13;;;17.80;55.30;;;;;;5115496;28;20184;-58
2023/02/21 03:08:20;;;;;;;6.13;5.28;;;17.80;55.30;;;;;;5107422;28;20561;-57
2023/02/21 03:10:55;;;;;;;5.13;4.57;;;17.70;55.30;;;;;;5116381;28;20204;-56
2023/02/21 03:13:27;;;;;;;6.55;5.20;;;17.70;55.30;;;;;;5115292;28;20199;-57
2023/02/21 03:16:00;;;;;;;7.65;5.70;;;17.70;55.30;;;;;;5114606;28;20189;-56
2023/02/21 03:18:36;;;;;;;5.38;4.43;;;17.70;55.30;;;;;;5114172;28;20189;-56
2023/02/21 03:21:04;;;;;;;4.95;4.50;;;17.70;55.30;;;;;;5113994;28;20180;-57
2023/02/21 03:23:30;;;;;;;5.05;4.55;;;17.70;55.30;;;;;;5114405;28;20241;-57
2023/02/21 03:25:57;;;;;;;5.70;5.20;;;17.70;55.30;;;;;;5114588;28;20567;-55
2023/02/21 03:28:23;;;;;;;6.40;5.72;;;17.70;55.30;;;;;;5113966;28;20208;-55
2023/02/21 03:30:51;;;;;;;6.10;5.50;;;17.70;55.30;;;;;;5113135;28;20223;-55
2023/02/21 03:33:16;;;;;;;7.28;5.47;;;17.70;55.30;;;;;;5113720;28;20169;-56
2023/02/21 03:35:42;;;;;;;5.72;5.13;;;17.70;55.30;;;;;;5114142;28;20225;-56
2023/02/21 03:38:07;;;;;;;6.60;5.80;;;17.70;55.30;;;;;;5096131;28;20203;-58
2023/02/21 03:40:33;;;;;;;6.53;5.35;;;17.60;55.20;;;;;;5096248;28;20177;-54
2023/02/21 03:43:00;;;;;;;5.57;5.10;;;17.60;55.20;;;;;;5114951;28;20230;-58
2023/02/21 03:45:25;;;;;;;6.00;5.30;;;17.60;55.20;;;;;;5114293;28;20204;-55
2023/02/21 03:47:51;;;;;;;6.20;5.60;;;17.70;55.40;;;;;;5114596;28;20248;-57
2023/02/21 03:50:16;;;;;;;5.45;4.90;;;17.70;55.30;;;;;;5112905;28;20261;-55
2023/02/21 03:52:42;;;;;;;7.47;5.90;;;17.60;55.20;;;;;;5114389;28;20169;-55
2023/02/21 03:55:07;;;;;;;6.05;5.45;;;17.70;55.30;;;;;;5114556;28;20165;-55
2023/02/21 03:57:33;;;;;;;5.93;5.38;;;17.60;55.20;;;;;;5113515;28;20180;-56
2023/02/21 03:59:59;;;;;;;6.38;5.78;;;17.60;55.20;;;;;;5114701;28;20179;-58
2023/02/21 04:02:24;;;;;;;6.18;5.57;;;17.60;55.30;;;;;;5114557;28;20587;-57
2023/02/21 04:04:50;;;;;;;5.40;4.90;;;17.60;55.30;;;;;;5113490;28;20173;-58
2023/02/21 04:07:16;;;;;;;6.15;5.50;;;17.60;55.30;;;;;;5114293;28;20300;-57
2023/02/21 04:09:42;;;;;;;5.65;5.05;;;17.60;55.30;;;;;;5114102;28;20176;-56
2023/02/21 04:12:07;;;;;;;6.88;5.50;;;17.60;55.30;;;;;;5113816;28;20176;-51
2023/02/21 04:14:33;;;;;;;6.88;6.13;;;17.60;55.30;;;;;;5114047;28;20169;-56
2023/02/21 04:16:59;;;;;;;7.13;5.10;;;17.60;55.30;;;;;;5078114;28;1035822;-56
2023/02/21 04:19:24;;;;;;;6.18;5.57;;;17.60;55.30;;;;;;5114583;28;20184;-57
2023/02/21 04:21:50;;;;;;;6.55;5.88;;;17.50;55.20;;;;;;5114978;28;20180;-56
2023/02/21 04:24:15;;;;;;;5.80;5.30;;;17.50;55.30;;;;;;5115005;28;20662;-55
2023/02/21 04:26:41;;;;;;;6.00;5.30;;;17.60;55.90;;;;;;5114102;28;20678;-55
2023/02/21 04:29:06;;;;;;;6.05;5.50;;;17.50;55.20;;;;;;5115045;28;20619;-56
2023/02/21 04:31:32;;;;;;;5.63;5.13;;;17.50;55.30;;;;;;5114727;28;20653;-54
2023/02/21 04:33:58;;;;;;;6.50;5.80;;;17.50;55.30;;;;;;5114198;28;20590;-57
2023/02/21 04:36:24;;;;;;;6.45;5.47;;;17.50;55.20;;;;;;5115015;28;20226;-54
2023/02/21 04:38:50;;;;;;;6.00;5.38;;;17.50;55.30;;;;;;5114666;28;20570;-56
2023/02/21 04:41:15;;;;;;;5.68;5.07;;;17.50;55.90;;;;;;5114082;28;20169;-56
2023/02/21 04:43:42;;;;;;;5.82;5.13;;;17.50;55.30;;;;;;5114416;28;20263;-57
2023/02/21 04:46:08;;;;;;;6.13;5.63;;;17.50;55.30;;;;;;5114205;28;20200;-57
2023/02/21 04:48:33;;;;;;;5.45;4.90;;;17.50;55.30;;;;;;5113543;28;20525;-55
2023/02/21 04:50:59;;;;;;;5.95;5.35;;;17.50;55.30;;;;;;5114580;28;20173;-54
2023/02/21 04:53:24;;;;;;;5.95;5.35;;;17.50;55.30;;;;;;5114313;28;20180;-55
2023/02/21 04:55:50;;;;;;;6.22;5.63;;;17.40;55.30;;;;;;5113574;28;20177;-53
2023/02/21 04:58:15;;;;;;;5.68;5.10;;;17.50;55.30;;;;;;5114575;28;20654;-57
2023/02/21 05:00:41;;;;;;;7.25;5.13;;;17.50;55.30;;;;;;5113474;28;20682;-54
2023/02/21 05:03:06;;;;;;;7.28;5.63;;;17.40;55.30;;;;;;5114429;28;20669;-58
2023/02/21 05:05:32;;;;;;;6.05;5.45;;;17.40;55.30;;;;;;5114079;28;20201;-58
2023/02/21 05:07:57;;;;;;;6.15;5.18;;;17.50;55.40;;;;;;5113501;28;20643;-57
2023/02/21 05:10:23;;;;;;;6.10;5.50;;;17.40;55.30;;;;;;5114142;28;20173;-55
2023/02/21 05:12:48;;;;;;;7.40;6.25;;;17.40;55.30;;;;;;5113850;28;20180;-55
2023/02/21 05:15:15;;;;;;;6.07;5.45;;;17.40;55.40;;;;;;5113351;28;20184;-56
2023/02/21 05:17:40;;;;;;;5.88;5.20;;;17.40;55.40;;;;;;5112952;28;20304;-53
2023/02/21 05:20:10;;;;;;;6.18;5.50;;;17.40;55.40;;;;;;5114237;28;20597;-54
2023/02/21 05:22:38;;;;;;;6.38;5.78;;;17.40;55.40;;;;;;5112739;28;20173;-55
2023/02/21 05:25:05;;;;;;;5.82;5.25;;;17.40;55.40;;;;;;5113916;28;20188;-56
2023/02/21 05:27:31;;;;;;;5.95;4.97;;;17.40;55.30;;;;;;5114076;28;20220;-56
2023/02/21 05:29:56;;;;;;;6.18;5.50;;;17.40;55.30;;;;;;5113321;28;20173;-56
2023/02/21 05:32:22;;;;;;;5.63;5.07;;;17.40;55.40;;;;;;5114015;28;20260;-56
2023/02/21 05:34:48;;;;;;;7.22;5.88;;;17.40;55.30;;;;;;5113539;28;20294;-58
2023/02/21 05:37:14;;;;;;;7.88;6.18;;;17.40;55.30;;;;;;5113009;28;20542;-57
2023/02/21 05:39:39;;;;;;;6.22;5.50;;;17.40;55.30;;;;;;5113735;28;20176;-56
2023/02/21 05:42:05;;;;;;;5.90;5.40;;;17.30;55.30;;;;;;5114022;28;20177;-58
2023/02/21 05:44:30;;;;;;;5.72;5.07;;;17.40;55.40;;;;;;5113008;28;20181;-58
2023/02/21 05:46:56;;;;;;;6.85;5.78;;;17.40;55.40;;;;;;5113456;28;20209;-58
2023/02/21 05:49:21;;;;;;;6.95;5.90;;;17.30;55.30;;;;;;5113652;28;20169;-55
2023/02/21 05:51:47;;;;;;;6.03;5.38;;;17.30;55.30;;;;;;5112807;28;20572;-55
2023/02/21 05:54:17;;;;;;;5.75;5.20;;;17.30;55.30;;;;;;5113777;28;20165;-55
2023/02/21 05:56:44;;;;;;;6.78;5.35;;;17.30;55.30;;;;;;5113495;28;20238;-53
2023/02/21 05:59:10;;;;;;;6.68;5.13;;;17.30;55.30;;;;;;5112770;28;20179;-58
2023/02/21 06:01:35;;;;;;;6.32;5.53;;;17.30;55.30;;;;;;5113233;28;20561;-58
2023/02/21 06:04:01;;;;;;;6.45;5.63;;;17.30;55.30;;;;;;5112836;28;20181;-58
2023/02/21 06:06:26;;;;;;;6.57;5.97;;;17.30;55.30;;;;;;5112950;28;20748;-57
2023/02/21 06:08:52;;;;;;;5.75;5.25;;;17.30;55.30;;;;;;5113288;28;20559;-57
2023/02/21 06:11:23;;;;;;;6.38;5.75;;;17.30;55.30;;;;;;5112729;28;20226;-56
2023/02/21 06:13:51;;;;;;;6.22;5.60;;;17.30;55.30;;;;;;5113032;28;20504;-56
2023/02/21 06:16:17;;;;;;;6.40;5.72;;;17.30;55.30;;;;;;5113007;28;20173;-56
2023/02/21 06:18:43;;;;;;;6.88;5.70;;;17.30;55.30;;;;;;5112250;28;20188;-57
2023/02/21 06:21:08;;;;;;;6.35;5.75;;;17.30;55.30;;;;;;5113213;28;20173;-55
2023/02/21 06:23:33;;;;;;;6.50;5.78;;;17.20;55.30;;;;;;5113190;28;20173;-57
2023/02/21 06:25:59;;;;;;;5.25;4.75;;;17.20;55.30;;;;;;5112612;28;20212;-56
2023/02/21 06:28:28;;;;;;;6.15;5.13;;;17.30;55.30;;;;;;5113080;28;20177;-56
2023/02/21 06:30:54;;;;;;;6.95;6.25;;;17.20;55.30;;;;;;5112662;28;20166;-57
2023/02/21 06:33:20;;;;;;;6.60;5.90;;;17.30;55.30;;;;;;5112458;28;20177;-57
2023/02/21 06:35:45;;;;;;;6.93;5.93;;;17.20;55.40;;;;;;5112674;28;20210;-58
2023/02/21 06:38:11;;;;;;;6.28;5.60;;;17.20;55.30;;;;;;5113255;28;20169;-58
2023/02/21 06:40:36;;;;;;;7.90;6.45;;;17.20;55.40;;;;;;5112274;28;20226;-57
2023/02/21 06:43:02;;;;;;;6.80;5.45;;;17.20;55.30;;;;;;5113126;28;20234;-57
2023/02/21 06:45:28;;;;;;;6.75;6.00;;;17.20;55.30;;;;;;5113160;28;20543;-57
2023/02/21 06:47:53;;;;;;;6.68;5.80;;;17.20;55.30;;;;;;5111847;28;20205;-57
2023/02/21 06:50:19;;;;;;;6.93;5.85;;;17.20;55.30;;;;;;5113362;28;20173;-56
2023/02/21 06:52:44;;;;;;;6.18;5.57;;;17.20;55.30;;;;;;5112729;28;20211;-55
2023/02/21 06:55:10;;;;;;;7.03;6.32;;;17.20;55.30;;;;;;5112153;28;20279;-56
2023/02/21 06:57:35;;;;;;;6.90;5.93;;;17.20;55.30;;;;;;5112608;28;20173;-57
2023/02/21 07:00:02;;;;;;;6.95;5.88;;;17.20;55.40;;;;;;5112659;28;20173;-55
2023/02/21 07:02:28;;;;;;;5.60;5.10;;;17.20;55.40;;;;;;5112156;28;20177;-58
2023/02/21 07:04:53;;;;;;;6.10;5.50;;;17.20;55.40;;;;;;5112409;28;20229;-57
2023/02/21 07:07:19;;;;;;;6.40;5.38;;;17.20;55.40;;;;;;5112217;28;20209;-57
2023/02/21 07:09:44;;;;;;;6.47;5.82;;;17.10;55.60;;;;;;5113189;28;20170;-55
2023/02/21 07:12:10;;;;;;;7.03;6.32;;;17.10;55.30;;;;;;5116687;28;20169;-54
2023/02/21 07:14:35;;;;;;;7.93;6.55;;;17.10;55.30;;;;;;5115679;28;20175;-56
2023/02/21 07:17:01;;;;;;;5.95;5.35;;;17.10;55.40;;;;;;5116389;28;20579;-55
2023/02/21 07:19:26;;;;;;;7.32;6.30;;;17.10;55.40;;;;;;5116241;28;20169;-56
2023/02/21 07:21:52;;;;;;;6.80;5.78;;;17.10;55.40;;;;;;5115605;28;20188;-57
2023/02/21 07:24:17;;;;;;;6.68;5.88;;;17.10;55.40;;;;;;5116527;28;20169;-56
2023/02/21 07:26:43;;;;;;;6.78;5.95;;;17.10;55.50;;;;;;5115981;28;20196;-55
2023/02/21 07:29:08;;;;;;;6.50;5.60;;;17.10;55.40;;;;;;5115555;28;20192;-54
2023/02/21 07:31:34;;;;;;;6.68;5.97;;;17.10;55.30;;;;;;5116020;28;20169;-56
2023/02/21 07:33:59;;;;;;;7.70;6.53;;;17.10;55.40;;;;;;5116047;28;20172;-57
2023/02/21 07:36:25;;;;;;;7.28;6.10;;;17.10;55.40;;;;;;5115455;28;20181;-55
2023/02/21 07:38:50;;;;;;;6.90;6.07;;;17.10;55.40;;;;;;5115961;28;20173;-58
2023/02/21 07:41:16;;;;;;;6.72;6.03;;;17.10;55.40;;;;;;5116163;28;20183;-57
2023/02/21 07:43:42;;;;;;;6.93;6.22;;;17.10;55.40;;;;;;5114885;28;20246;-57
2023/02/21 07:46:11;;;;;;;6.65;5.70;;;17.10;55.40;;;;;;5115789;28;20197;-57
2023/02/21 07:48:37;;;;;;;7.30;5.55;;;17.00;55.40;;;;;;5115511;28;20181;-54
2023/02/21 07:51:02;;;;;;;6.78;5.85;;;17.00;55.40;;;;;;5115282;28;20532;-55
2023/02/21 07:53:28;;;;;;;7.03;5.78;;;17.00;55.40;;;;;;5116066;28;20181;-55
2023/02/21 07:55:53;;;;;;;8.38;5.28;;;17.10;55.40;;;;;;5115432;28;20516;-66
2023/02/21 07:58:19;;;;;;;8.45;5.72;;;17.00;55.90;;;;;;5114721;28;20173;-67
2023/02/21 08:00:44;;;;;;;7.30;6.22;;;17.00;56.10;;;;;;5114796;28;20583;-66
2023/02/21 08:03:13;;;;;;;6.90;5.38;;;17.00;55.70;;;;;;5115096;28;20572;-65
2023/02/21 08:05:39;;;;;;;7.22;5.57;;;17.00;55.90;;;;;;5114118;28;20268;-65
2023/02/21 08:08:08;;;;;;;7.90;6.13;;;17.00;55.60;;;;;;5115028;28;20268;-64
2023/02/21 08:10:34;;;;;;;7.50;5.55;;;17.10;55.60;;;;;;5114131;28;20169;-64
2023/02/21 08:12:59;;;;;;;6.65;5.55;;;17.10;55.70;;;;;;5114714;28;20176;-64
2023/02/21 08:15:25;;;;;;;6.82;5.82;;;17.10;55.90;;;;;;5114667;28;20169;-65
2023/02/21 08:17:50;;;;;;;9.15;7.40;;;17.10;55.90;;;;;;5113313;28;20232;-65
2023/02/21 08:20:16;;;;;;;7.28;5.82;;;17.10;55.90;;;;;;5114982;28;20165;-66
2023/02/21 08:22:42;;;;;;;9.10;5.97;;;17.10;56.60;;;;;;5113058;28;20192;-62
2023/02/21 08:25:09;;;;;;;10.10;6.78;;;17.10;56.70;;;;;;5114073;28;20225;-61
2023/02/21 08:27:37;;;;;;;10.15;6.78;;;17.10;55.80;;;;;;5113233;28;20282;-62
2023/02/21 08:30:02;;;;;;;9.43;6.25;;;17.20;55.90;;;;;;5113638;28;20196;-64
2023/02/21 08:32:28;;;;;;;8.50;6.72;;;17.20;55.80;;;;;;5114112;28;20212;-62
2023/02/21 08:34:53;;;;;;;8.13;6.55;;;17.20;55.80;;;;;;5114578;28;20165;-63
2023/02/21 08:37:19;;;;;;;7.88;5.97;;;17.20;55.80;;;;;;5114728;28;20177;-62
2023/02/21 08:39:51;;;;;;;6.90;5.70;;;17.20;55.80;;;;;;5113313;28;20572;-62
2023/02/21 08:42:17;;;;;;;7.03;5.85;;;17.20;55.80;;;;;;5113121;28;20212;-62
2023/02/21 08:44:44;;;;;;;8.02;5.85;;;17.20;55.80;;;;;;5113267;28;20257;-61
2023/02/21 08:47:10;;;;;;;6.95;5.28;;;17.20;55.90;;;;;;5112697;28;20223;-61
2023/02/21 08:49:38;;;;;;;6.90;5.55;;;17.20;56.60;;;;;;5113125;28;20162;-61
2023/02/21 08:52:05;;;;;;;6.07;5.38;;;17.20;55.90;;;;;;5113946;28;20180;-61
2023/02/21 08:54:30;;;;;;;5.57;5.05;;;17.20;56.60;;;;;;5112842;28;20231;-62
2023/02/21 08:56:57;;;;;;;6.47;5.63;;;17.20;55.90;;;;;;5113479;28;20165;-61
2023/02/21 08:59:23;;;;;;;7.45;5.97;;;17.20;55.90;;;;;;5113651;28;20180;-62
2023/02/21 09:01:48;;;;;;;9.93;5.95;;;17.20;55.90;;;;;;5112062;28;20572;-62
2023/02/21 09:04:14;;;;;;;7.05;5.85;;;17.30;56.00;;;;;;5113352;28;20644;-61
2023/02/21 09:06:40;;;;;;;6.72;5.72;;;17.20;56.00;;;;;;5112345;28;20694;-61
2023/02/21 09:09:05;;;;;;;7.10;5.47;;;17.30;56.00;;;;;;5112813;28;20215;-61
2023/02/21 09:11:31;;;;;;;6.80;5.78;;;17.30;56.00;;;;;;5113892;28;20174;-62
2023/02/21 09:13:56;;;;;;;5.95;4.53;;;17.30;56.10;;;;;;5112531;28;20161;-62
2023/02/21 09:16:22;;;;;;;7.05;5.38;;;17.20;56.00;;;;;;5113345;28;20165;-61
2023/02/21 09:18:57;;;;;;;7.35;5.22;;;17.30;56.10;;;;;;5113177;28;20268;-63
2023/02/21 09:21:23;;;;;;;5.93;4.60;;;17.20;56.00;;;;;;5112933;28;20183;-62
2023/02/21 09:23:51;;;;;;;7.72;5.45;;;17.20;56.00;;;;;;5113336;28;20173;-64
2023/02/21 09:26:17;;;;;;;6.32;5.50;;;17.20;56.00;;;;;;5113645;28;20299;-63
2023/02/21 09:28:42;;;;;;;8.02;5.78;;;17.30;56.70;;;;;;5112615;28;20268;-63
2023/02/21 09:31:08;;;;;;;7.28;5.88;;;17.30;56.70;;;;;;5113679;28;20589;-65
2023/02/21 09:33:39;;;;;;;9.13;6.38;;;17.20;56.20;;;;;;5112941;28;20225;-71
2023/02/21 09:36:06;;;;;;;7.30;6.03;;;17.20;56.30;;;;;;5112715;28;20169;-70
2023/02/21 09:38:32;;;;;;;7.90;6.18;;;17.20;56.40;;;;;;5113243;28;20187;-70
2023/02/21 09:41:02;;;;;;;8.30;6.22;;;17.20;56.60;;;;;;5113460;28;20248;-69
2023/02/21 09:43:35;;;;;;;7.53;6.10;;;17.20;56.50;;;;;;5111596;28;20268;-68
2023/02/21 09:46:27;;;;;;;6.45;5.70;;;17.20;56.60;;;;;;5112016;28;20302;-68
2023/02/21 09:48:53;;;;;;;8.02;6.32;;;17.20;56.50;;;;;;5105499;28;20199;-68
2023/02/21 09:51:18;;;;;;;6.68;5.70;;;17.20;56.60;;;;;;5111643;28;20638;-66
2023/02/21 09:53:46;;;;;;;7.88;6.20;;;17.20;56.60;;;;;;5113011;28;20169;-68
2023/02/21 09:56:20;;;;;;;7.70;6.13;;;17.10;56.50;;;;;;5111401;28;20177;-69
2023/02/21 09:58:45;;;;;;;6.90;6.20;;;17.10;56.60;;;;;;5111662;28;20173;-70
2023/02/21 10:01:35;;;;;;;7.25;6.00;;;17.10;56.50;;;;;;5112632;28;20669;-69
2023/02/21 10:04:38;;;;;;;6.07;5.10;;;17.10;56.60;;;;;;5080228;28;20276;-69
2023/02/21 10:07:43;;;;;;;6.00;5.40;;;17.10;56.60;;;;;;5113241;28;20268;-64
2023/02/21 10:10:38;;;;;;;7.78;5.43;;;17.10;56.80;;;;;;5098153;28;20209;-65
2023/02/21 10:13:31;;;;;;;8.02;6.47;;;17.10;57.20;;;;;;5111756;28;20181;-64
2023/02/21 10:16:16;;;;;;;8.18;6.13;;;17.10;56.70;;;;;;5113066;28;20196;-65
2023/02/21 10:19:03;;;;;;;7.93;6.05;;;17.10;56.70;;;;;;5111103;28;20326;-66
2023/02/21 10:21:31;;;;;;;9.45;6.53;;;17.10;56.60;;;;;;5081329;28;20650;-65
2023/02/21 10:24:03;;;;;;;6.35;5.70;;;17.10;56.60;;;;;;5111732;28;20189;-65
2023/02/21 10:26:30;;;;;;;7.50;6.28;;;17.10;56.60;;;;;;5111822;28;20235;-64
2023/02/21 10:28:55;;;;;;;6.72;6.03;;;17.10;56.60;;;;;;5111549;28;20608;-65
2023/02/21 10:31:28;;;;;;;5.72;5.18;;;17.10;56.50;;;;;;5111309;28;20180;-65
2023/02/21 10:33:54;;;;;;;7.43;5.88;;;17.10;56.80;;;;;;5111257;28;20169;-71
2023/02/21 10:36:20;;;;;;;9.60;6.30;;;17.10;56.80;;;;;;5114463;28;20191;-65
2023/02/21 10:38:53;;;;;;;7.53;5.93;;;17.10;56.80;;;;;;5112392;28;20177;-65
2023/02/21 10:41:19;;;;;;;6.40;5.60;;;17.10;56.60;;;;;;5110176;28;20176;-64
2023/02/21 10:43:50;;;;;;;7.03;5.68;;;17.10;56.50;;;;;;5112711;28;20178;-64
2023/02/21 10:46:21;;;;;;;6.63;5.82;;;17.10;56.50;;;;;;5134021;27;20206;-63
2023/02/21 10:48:50;;;;;;;9.80;6.72;;;17.10;56.50;;;;;;5137219;27;20622;-63
2023/02/21 10:51:16;;;;;;;6.82;6.13;;;17.10;56.50;;;;;;5131257;27;20546;-63
2023/02/21 10:53:44;;;;;;;8.48;6.40;;;17.10;56.50;;;;;;5125000;27;20180;-64
2023/02/21 10:56:18;;;;;;;7.70;6.53;;;17.00;56.40;;;;;;5137359;27;20212;-64
2023/02/21 10:58:58;;;;;;;7.53;6.40;;;17.10;56.40;;;;;;5137194;27;20171;-66
2023/02/21 11:01:29;;;;;;;6.63;5.93;;;17.00;56.40;;;;;;5119111;27;20164;-64
2023/02/21 11:04:19;;;;;;;8.77;6.57;;;17.00;56.30;;;;;;5136953;27;20176;-65
2023/02/21 11:06:54;;;;;;;7.97;5.90;;;17.00;56.30;;;;;;5135206;27;20299;-64
2023/02/21 11:09:27;;;;;;;7.93;6.22;;;17.00;56.30;;;;;;5135971;27;20168;-63
2023/02/21 11:12:15;;;;;;;7.50;6.05;;;17.00;56.20;;;;;;5117041;27;20188;-63
2023/02/21 11:14:41;;;;;;;8.00;6.03;;;17.00;56.30;;;;;;5115552;28;20161;-64
2023/02/21 11:17:15;;;;;;;8.30;6.55;;;17.00;56.30;;;;;;5116291;28;20298;-63
2023/02/21 11:20:04;;;;;;;7.88;6.63;;;17.00;56.20;;;;;;5115914;28;20180;-64
2023/02/21 11:22:32;;;;;;;6.97;5.97;;;17.00;56.20;;;;;;5115635;28;20204;-64
2023/02/21 11:25:02;;;;;;;6.30;5.68;;;17.00;56.20;;;;;;5116231;28;20199;-63
2023/02/21 11:27:29;;;;;;;7.63;6.00;;;17.00;56.20;;;;;;5114522;28;20215;-63
2023/02/21 11:29:55;;;;;;;7.65;5.70;;;17.00;56.20;;;;;;5116088;28;20173;-66
2023/02/21 11:32:31;;;;;;;7.70;6.63;;;17.00;56.20;;;;;;5098208;28;20641;-64
2023/02/21 11:35:26;;;;;;;6.13;5.53;;;17.00;56.20;;;;;;5115395;28;20203;-65
2023/02/21 11:37:56;;;;;;;7.03;6.22;;;17.00;56.20;;;;;;5109920;28;20288;-64
2023/02/21 11:40:31;;;;;;;6.93;6.22;;;17.00;56.10;;;;;;5116062;28;20226;-63
2023/02/21 11:43:15;;;;;;;7.15;6.43;;;17.00;56.20;;;;;;5115285;28;20272;-64
2023/02/21 11:46:12;;;;;;;6.55;5.82;;;17.00;56.10;;;;;;5132386;27;20207;-63
2023/02/21 11:48:53;;;;;;;7.63;6.10;;;16.90;56.10;;;;;;5130681;27;20204;-63
2023/02/21 11:51:33;;;;;;;7.50;6.13;;;17.00;56.10;;;;;;5135434;27;20233;-63
2023/02/21 11:53:58;;;;;;;7.22;6.53;;;16.90;56.10;;;;;;5136472;27;20253;-63
2023/02/21 11:56:34;;;;;;;8.57;6.80;;;16.90;56.10;;;;;;5134915;27;20706;-63
2023/02/21 11:59:06;;;;;;;6.72;6.03;;;16.90;56.10;;;;;;5135088;27;20175;-64
2023/02/21 12:01:38;;;;;;;6.05;5.35;;;16.90;56.10;;;;;;5135772;27;20182;-64
2023/02/21 12:04:13;;;;;;;7.18;6.03;;;16.90;56.10;;;;;;5134325;27;20245;-65
2023/02/21 12:06:55;;;;;;;6.22;5.60;;;17.00;56.10;;;;;;5135454;27;20204;-63
2023/02/21 12:09:44;;;;;;;6.57;5.97;;;16.90;56.40;;;;;;5134878;27;20169;-63
2023/02/21 12:12:31;;;;;;;6.25;5.65;;;16.90;56.10;;;;;;5136146;27;20590;-62
2023/02/21 12:15:18;;;;;;;7.03;5.18;;;16.90;56.20;;;;;;5135631;27;20225;-61
2023/02/21 12:18:18;;;;;;;7.72;6.20;;;16.90;56.50;;;;;;5134427;27;20234;-63
2023/02/21 12:21:08;;;;;;;5.90;5.28;;;17.00;56.60;;;;;;5135051;27;20187;-63
2023/02/21 12:23:43;;;;;;;15.05;6.47;;;17.00;56.40;;;;;;5134203;27;20181;-67
2023/02/21 12:26:29;;;;;;;8.75;5.28;;;17.10;56.60;;;;;;5134314;27;20718;-63
2023/02/21 12:29:24;;;;;;;9.30;4.97;;;17.20;56.50;;;;;;5134404;27;20222;-63
2023/02/21 12:32:08;;;;;;;5.85;4.88;;;17.40;56.40;;;;;;5133473;27;20156;-64
2023/02/21 12:34:50;;;;;;;8.00;4.95;;;17.50;56.20;;;;;;5133856;27;20176;-64
2023/02/21 12:37:43;;;;;;;5.57;4.30;;;17.70;55.90;;;;;;5134135;27;20171;-63
2023/02/21 12:40:18;;;;;;;6.50;4.78;;;17.90;55.60;;;;;;5135079;27;20180;-64
2023/02/21 12:42:57;;;;;;;6.05;4.28;;;18.10;55.30;;;;;;5134878;27;20637;-64
2023/02/21 12:45:51;;;;;;;5.30;4.15;;;18.30;55.00;;;;;;5118850;27;20611;-64
2023/02/21 12:48:36;;;;;;;7.68;4.40;;;18.50;54.70;;;;;;5114591;28;20623;-63
2023/02/21 12:51:07;;;;;;;5.97;4.13;;;18.60;54.70;;;;;;5113556;28;20180;-63
2023/02/21 12:53:54;;;;;;;5.90;4.05;;;18.70;54.80;;;;;;5096064;28;20173;-63
2023/02/21 12:56:48;;;;;;;6.65;3.72;;;18.80;54.70;;;;;;5104096;28;20205;-63
2023/02/21 12:59:26;;;;;;;5.22;3.85;;;18.80;54.60;;;;;;5109826;28;20181;-64
2023/02/21 13:01:57;;;;;;;6.57;3.78;;;18.80;54.60;;;;;;5113092;28;20185;-63
2023/02/21 13:04:50;;;;;;;4.70;3.80;;;18.90;54.50;;;;;;5096449;28;20222;-64
2023/02/21 13:07:24;;;;;;;4.15;3.75;;;18.90;54.50;;;;;;5111454;28;20205;-62
2023/02/21 13:09:57;;;;;;;4.90;3.47;;;18.90;54.50;;;;;;5113514;28;20170;-63
2023/02/21 13:12:27;;;;;;;4.28;3.60;;;18.90;54.50;;;;;;5109831;28;20184;-63
2023/02/21 13:15:26;;;;;;;4.63;3.60;;;19.00;54.50;;;;;;5110786;28;20604;-64
2023/02/21 13:17:56;;;;;;;5.65;3.60;;;18.90;54.50;;;;;;5077847;27;20353;-62
2023/02/21 13:20:22;;;;;;;5.40;4.13;;;19.00;54.50;;;;;;5111484;28;20189;-64
2023/02/21 13:23:07;;;;;;;5.97;3.40;;;18.90;54.50;;;;;;5112261;28;20258;-69
2023/02/21 13:26:04;;;;;;;4.05;3.55;;;18.90;54.60;;;;;;5113623;28;20613;-64
2023/02/21 13:28:30;;;;;;;4.68;3.40;;;19.00;54.60;;;;;;5106241;28;20200;-64
2023/02/21 13:31:00;;;;;;;4.07;3.67;;;18.90;54.60;;;;;;5113297;28;20643;-66
2023/02/21 13:33:47;;;;;;;4.93;3.58;;;18.90;54.70;;;;;;5112751;28;20173;-66
2023/02/21 13:36:20;;;;;;;4.28;3.50;;;18.90;54.90;;;;;;5111589;28;20248;-66
2023/02/21 13:38:55;;;;;;;7.13;4.00;;;18.80;55.10;;;;;;5112069;28;20635;-65
2023/02/21 13:41:20;;;;;;;5.55;3.75;;;18.80;55.00;;;;;;5111848;28;20648;-64
2023/02/21 13:43:48;;;;;;;4.47;3.20;;;18.70;55.30;;;;;;5112615;27;20177;-64
2023/02/21 13:46:29;;;;;;;4.43;2.95;;;18.70;55.30;;;;;;5132868;27;20256;-64
2023/02/21 13:49:32;;;;;;;4.20;2.97;;;18.70;56.00;;;;;;5133094;27;20169;-65
2023/02/21 13:52:23;;;;;;;4.97;2.80;;;18.70;55.40;;;;;;5134032;27;20538;-65
2023/02/21 13:55:10;;;;;;;3.35;2.90;;;18.70;55.40;;;;;;5133661;27;20167;-66
2023/02/21 13:57:42;;;;;;;4.00;2.97;;;18.70;55.40;;;;;;5133792;27;20229;-67
2023/02/21 14:00:20;;;;;;;3.67;2.97;;;18.70;55.50;;;;;;5134168;27;20176;-72
2023/02/21 14:03:07;;;;;;;3.13;2.83;;;18.80;55.50;;;;;;5132797;27;20176;-63
2023/02/21 14:05:51;;;;;;;3.13;2.78;;;18.80;55.50;;;;;;5133335;27;20557;-64
2023/02/21 14:08:47;;;;;;;5.25;3.10;;;18.80;55.40;;;;;;5133816;27;20299;-64
2023/02/21 14:11:23;;;;;;;3.75;2.95;;;18.80;55.40;;;;;;5133257;27;20180;-64
2023/02/21 14:13:50;;;;;;;2.88;2.67;;;18.80;55.40;;;;;;5115254;28;20247;-64
2023/02/21 14:16:25;;;;;;;3.53;2.88;;;18.80;55.50;;;;;;5132882;27;20168;-63
2023/02/21 14:19:00;;;;;;;2.83;2.63;;;18.80;55.50;;;;;;5132995;27;20227;-64
2023/02/21 14:21:39;;;;;;;3.90;3.28;;;18.70;55.50;;;;;;5136088;27;20232;-64
2023/02/21 14:24:10;;;;;;;3.13;2.80;;;18.60;55.60;;;;;;5137277;27;20180;-65
2023/02/21 14:26:49;;;;;;;3.08;2.58;;;18.70;55.70;;;;;;5136190;27;20207;-63
2023/02/21 14:29:29;;;;;;;3.22;2.67;;;18.50;55.60;;;;;;5137714;27;20179;-64
2023/02/21 14:32:03;;;;;;;4.03;2.92;;;18.70;55.70;;;;;;5136295;27;20573;-64
2023/02/21 14:34:38;;;;;;;3.25;2.55;;;18.70;55.60;;;;;;5137441;27;20486;-65
2023/02/21 14:37:26;;;;;;;3.53;2.58;;;18.80;55.60;;;;;;5136468;27;20175;-65
2023/02/21 14:40:24;;;;;;;3.10;2.80;;;18.70;55.40;;;;;;5137302;27;20590;-65
2023/02/21 14:43:01;;;;;;;3.30;2.60;;;18.70;55.50;;;;;;5082423;27;20267;-63
2023/02/21 14:45:38;;;;;;;3.05;2.75;;;18.60;55.60;;;;;;5121769;27;20180;-65
2023/02/21 14:48:34;;;;;;;4.15;2.85;;;18.60;55.60;;;;;;5115221;28;20714;-65
2023/02/21 14:51:21;;;;;;;3.75;3.03;;;18.50;55.60;;;;;;5115747;28;20227;-62
2023/02/21 14:54:23;;;;;;;5.50;3.15;;;18.60;55.80;;;;;;5116520;28;20174;-63
2023/02/21 14:57:12;;;;;;;2.70;2.50;;;18.50;55.70;;;;;;5116221;28;20225;-64
2023/02/21 15:00:17;;;;;;;3.67;2.70;;;18.60;55.70;;;;;;5115815;28;20209;-64
2023/02/21 15:03:04;;;;;;;3.47;3.17;;;18.70;55.60;;;;;;5100956;28;20177;-63
2023/02/21 15:05:48;;;;;;;3.05;2.75;;;18.60;55.50;;;;;;5115846;28;20219;-63
2023/02/21 15:08:22;;;;;;;3.83;3.10;;;18.60;55.60;;;;;;5116123;28;20200;-63
2023/02/21 15:10:49;;;;;;;2.65;2.35;;;18.50;55.70;;;;;;5115128;28;20180;-63
2023/02/21 15:13:28;;;;;;;4.07;2.80;;;18.50;55.90;;;;;;5114294;28;20204;-63
2023/02/21 15:16:10;;;;;;;3.42;2.53;;;18.40;55.90;;;;;;5114741;28;20205;-63
2023/02/21 15:18:40;;;;;;;3.22;2.58;;;18.40;55.90;;;;;;5114292;28;20670;-63
2023/02/21 15:21:09;;;;;;;3.60;3.00;;;18.50;56.10;;;;;;5113990;28;20227;-64
2023/02/21 15:23:35;;;;;;;3.00;2.70;;;18.50;56.00;;;;;;5115930;28;20173;-64
2023/02/21 15:26:17;;;;;;;4.55;3.03;;;18.40;55.90;;;;;;5116186;28;20710;-64